Skip Navigation Links Skip Navigation Links

Current Weather

Youngstown-Warren Regional, Youngstown/Warren, Ohio

For information only: do not use for flight planning or navigation.
Latest weather
Observation time Tuesday, January 26, 2021 7:51 PM EST
Local time Tuesday, January 26, 2021 8:19 PM EST
Flight conditions Marginal Visual Meteorological Conditions
Winds
Wind direction West (280°)
Wind speed 13 mph
Wind gusting to 25 mph
Visibility 8 mi.
Present weather light snow
Sky condition
Ceiling 1,400 ft. overcast
Cloud layer few clouds 800 ft.
Cloud layer overcast 1,400 ft.
Temperature 34°F
Dewpoint 29°F
Altimeter 29.84 in.Hg
Precipitation
Precipitation last hour trace
Derived measurements
Relative humidity 82%
Wind chill 25°F
Density altitude -322 ft.
Sea-level pressure 29.87 in.Hg
Remarks
Automated weather observing station with precipitation discriminator.
METAR KYNG 270051Z 28011G22KT 8SM -SN FEW008 OVC014 01/M02 A2984 RMK AO2 SLP114 P0000 T00111017

Settings

Location code

InnerDrive.Weather 4.0.6770.0 Release CLR 4.0.30319.42000
Copyright ©2018 Inner Drive Technology. All rights reserved. Portions Copyright ©1986-2018 David Braverman.

Find weather

Site navigation


Skip Navigation Links

Place info

Page info

PayPal - The safer, easier way to pay online!

Return home.

Copyright ©2021 Inner Drive Technology. Purveyors of fine, hand-crafted computer software. Page printed 2021-01-27T01:19:55 UTC.